Time;durP1;ratioP1;P1;durP2;ratioP2;P2;SDS_P1;SDS_P2;PMS_P1;PMS_P2;Temp;Humidity;BMP_temperature;BMP_pressure;BME280_temperature;BME280_humidity;BME280_pressure;Samples;Min_cycle;Max_cycle;Signal;HPM_P1;HPM_P2
2023/03/15 00:02:23;;;;;;;;;;;;;;;5.69;61.61;96894.09;4972645;28;19928;-80
2023/03/15 00:04:50;;;;;;;;;;;;;;;5.73;62.31;96897.81;5025753;28;20300;-80
2023/03/15 00:07:15;;;;;;;;;;;;;;;5.65;62.12;96902.50;4992063;28;20288;-80
2023/03/15 00:09:40;;;;;;;;;;;;;;;5.60;62.58;96903.16;4993140;28;19924;-79
2023/03/15 00:12:05;;;;;;;;;;;;;;;5.46;62.89;96904.34;4992903;28;19971;-80
2023/03/15 00:14:31;;;;;;;;;;;;;;;5.38;62.83;96906.22;4972169;28;19975;-79
2023/03/15 00:16:56;;;;;;;;;;;;;;;5.38;62.58;96916.56;4993141;28;19928;-80
2023/03/15 00:19:21;;;;;;;;;;;;;;;5.33;62.62;96913.84;4975709;28;19923;-80
2023/03/15 00:21:46;;;;;;;;;;;;;;;5.42;63.38;96922.84;4990181;28;20012;-79
2023/03/15 00:24:12;;;;;;;;;;;;;;;5.33;62.52;96918.19;5008741;28;20405;-79
2023/03/15 00:26:37;;;;;;;;;;;;;;;5.38;62.21;96932.03;4985091;28;19925;-79
2023/03/15 00:29:03;;;;;;;;;;;;;;;5.44;62.59;96935.53;5008451;28;19920;-79
2023/03/15 00:31:28;;;;;;;;;;;;;;;5.37;63.03;96943.34;4988640;28;19914;-79
2023/03/15 00:33:53;;;;;;;;;;;;;;;5.28;62.49;96942.09;4978378;28;19926;-79
2023/03/15 00:36:22;;;;;;;;;;;;;;;5.32;62.69;96947.59;4987695;28;20439;-79
2023/03/15 00:38:48;;;;;;;;;;;;;;;5.40;62.87;96945.50;4988600;28;20384;-79
2023/03/15 00:41:14;;;;;;;;;;;;;;;5.36;62.61;96949.50;4990848;28;19939;-80
2023/03/15 00:43:39;;;;;;;;;;;;;;;5.27;62.54;96950.03;4992132;28;20373;-80
2023/03/15 00:46:05;;;;;;;;;;;;;;;5.34;62.92;96950.75;5007212;28;19913;-79
2023/03/15 00:48:30;;;;;;;;;;;;;;;5.25;63.52;96945.09;5008573;28;20372;-79
2023/03/15 00:51:02;;;;;;;;;;;;;;;5.21;62.96;96946.53;5006938;28;19917;-79
2023/03/15 00:53:28;;;;;;;;;;;;;;;5.09;62.50;96936.13;5004066;28;19925;-79
2023/03/15 00:55:53;;;;;;;;;;;;;;;5.01;62.42;96939.00;5023892;28;20403;-80
2023/03/15 00:58:18;;;;;;;;;;;;;;;4.97;62.96;96945.56;5008916;28;19913;-80
2023/03/15 01:00:43;;;;;;;;;;;;;;;5.05;63.10;96935.78;5006279;28;19963;-80
2023/03/15 01:03:09;;;;;;;;;;;;;;;5.00;63.42;96933.06;5007339;28;20373;-80
2023/03/15 01:05:35;;;;;;;;;;;;;;;4.99;63.68;96938.44;5022737;28;19917;-80
2023/03/15 01:08:01;;;;;;;;;;;;;;;4.93;63.30;96944.44;4990560;28;19914;-80
2023/03/15 01:10:27;;;;;;;;;;;;;;;4.99;63.80;96939.22;4967667;28;19921;-80
2023/03/15 01:12:52;;;;;;;;;;;;;;;5.07;63.89;96933.78;5007913;28;20023;-80
2023/03/15 01:15:17;;;;;;;;;;;;;;;5.16;63.86;96925.75;5007156;28;19913;-79
2023/03/15 01:17:43;;;;;;;;;;;;;;;5.13;63.21;96926.16;5004710;28;19913;-80
2023/03/15 01:20:10;;;;;;;;;;;;;;;5.13;63.54;96928.75;5007706;28;19939;-79
2023/03/15 01:22:35;;;;;;;;;;;;;;;5.16;63.09;96930.91;5000431;28;20316;-79
2023/03/15 01:25:00;;;;;;;;;;;;;;;5.25;62.94;96927.03;4984471;28;19921;-79
2023/03/15 01:27:26;;;;;;;;;;;;;;;5.11;62.54;96941.09;4984132;28;19921;-80
2023/03/15 01:29:51;;;;;;;;;;;;;;;5.01;63.19;96934.63;4985276;28;20459;-80
2023/03/15 01:32:16;;;;;;;;;;;;;;;5.06;63.28;96937.34;5004846;28;19999;-79
2023/03/15 01:34:42;;;;;;;;;;;;;;;5.02;63.05;96949.09;5009328;28;19969;-80
2023/03/15 01:37:07;;;;;;;;;;;;;;;4.93;62.53;96950.38;4991220;28;19966;-79
2023/03/15 01:39:33;;;;;;;;;;;;;;;4.87;62.10;96953.81;4984993;28;19920;-79
2023/03/15 01:41:58;;;;;;;;;;;;;;;4.74;62.85;96951.34;4991884;28;20323;-79
2023/03/15 01:44:23;;;;;;;;;;;;;;;4.83;62.42;96958.63;5007259;28;19920;-79
2023/03/15 01:46:48;;;;;;;;;;;;;;;4.87;62.97;96962.34;5006812;28;20014;-78
2023/03/15 01:49:15;;;;;;;;;;;;;;;4.82;62.35;96971.72;4984276;28;19967;-79
2023/03/15 01:51:42;;;;;;;;;;;;;;;4.75;63.93;96982.09;4991919;28;20439;-78
2023/03/15 01:54:27;;;;;;;;;;;;;;;4.80;62.50;96986.63;5007215;28;20003;-79
2023/03/15 01:56:59;;;;;;;;;;;;;;;4.77;63.18;96981.88;5007105;28;20274;-79
2023/03/15 01:59:26;;;;;;;;;;;;;;;4.78;63.16;96988.59;5004571;28;19924;-79
2023/03/15 02:01:53;;;;;;;;;;;;;;;4.80;63.68;96996.94;4995846;22;19917;-74
2023/03/15 02:04:23;;;;;;;;;;;;;;;4.69;62.65;97001.78;5017018;28;19925;-74
2023/03/15 02:06:49;;;;;;;;;;;;;;;4.64;63.12;96999.06;5036414;28;20315;-73
2023/03/15 02:09:14;;;;;;;;;;;;;;;4.72;63.11;97007.53;5053753;28;19913;-74
2023/03/15 02:11:40;;;;;;;;;;;;;;;4.59;62.15;96998.09;5016515;28;20387;-73
2023/03/15 02:14:05;;;;;;;;;;;;;;;4.64;63.24;97006.78;5061079;28;19916;-74
2023/03/15 02:16:31;;;;;;;;;;;;;;;4.61;63.83;97009.78;5025848;28;20269;-74
2023/03/15 02:18:56;;;;;;;;;;;;;;;4.58;62.73;97009.41;4999674;28;19909;-74
2023/03/15 02:21:21;;;;;;;;;;;;;;;4.69;63.21;97009.53;5027752;28;20592;-74
2023/03/15 02:23:47;;;;;;;;;;;;;;;4.67;63.62;97011.50;5024696;28;19963;-74
2023/03/15 02:26:21;;;;;;;;;;;;;;;4.49;64.25;97009.66;5024286;28;19923;-74
2023/03/15 02:28:47;;;;;;;;;;;;;;;4.40;64.00;97004.97;5024864;28;19915;-74
2023/03/15 02:31:12;;;;;;;;;;;;;;;4.44;64.39;97008.72;5027733;28;19917;-75
2023/03/15 02:33:42;;;;;;;;;;;;;;;4.28;64.73;97010.78;5007336;28;19939;-75
2023/03/15 02:36:07;;;;;;;;;;;;;;;4.29;64.79;97007.22;5011671;28;19963;-75
2023/03/15 02:38:32;;;;;;;;;;;;;;;4.30;64.19;97008.00;5020480;28;19913;-75
2023/03/15 02:40:57;;;;;;;;;;;;;;;4.34;64.28;97016.13;5019348;28;20008;-75
2023/03/15 02:43:24;;;;;;;;;;;;;;;4.30;64.35;97016.53;5052591;28;20201;-74
2023/03/15 02:45:49;;;;;;;;;;;;;;;4.32;64.58;97016.31;5033413;28;19913;-74
2023/03/15 02:48:14;;;;;;;;;;;;;;;4.37;64.20;97024.22;5006585;28;20292;-74
2023/03/15 02:50:39;;;;;;;;;;;;;;;4.36;63.90;97021.84;5026413;28;19944;-74
2023/03/15 02:53:05;;;;;;;;;;;;;;;4.46;63.77;97022.97;5033713;28;20356;-75
2023/03/15 02:55:33;;;;;;;;;;;;;;;4.30;63.95;97019.09;5029360;28;19916;-74
2023/03/15 02:57:59;;;;;;;;;;;;;;;4.38;64.10;97030.16;5035897;28;19913;-74
2023/03/15 03:00:25;;;;;;;;;;;;;;;4.32;64.36;97026.63;5008690;28;19967;-74
2023/03/15 03:02:50;;;;;;;;;;;;;;;4.24;64.60;97029.44;5012699;28;20381;-74
2023/03/15 03:05:15;;;;;;;;;;;;;;;4.09;63.82;97025.34;5018847;28;19913;-75
2023/03/15 03:07:44;;;;;;;;;;;;;;;4.22;65.25;97029.66;5001550;28;20019;-75
2023/03/15 03:10:10;;;;;;;;;;;;;;;4.14;64.44;97032.47;5001809;28;19921;-74
2023/03/15 03:12:35;;;;;;;;;;;;;;;4.01;64.49;97022.22;5003628;28;20475;-74
2023/03/15 03:15:02;;;;;;;;;;;;;;;4.14;64.85;97032.47;5017356;28;20008;-75
2023/03/15 03:17:27;;;;;;;;;;;;;;;4.10;63.87;97034.66;5017961;28;19932;-75
2023/03/15 03:19:52;;;;;;;;;;;;;;;4.10;64.17;97032.09;5000530;28;19912;-75
2023/03/15 03:22:18;;;;;;;;;;;;;;;4.17;64.65;97034.63;5016513;28;19917;-74
2023/03/15 03:24:44;;;;;;;;;;;;;;;4.06;64.22;97040.44;5019613;28;19921;-76
2023/03/15 03:27:13;;;;;;;;;;;;;;;4.04;64.53;97052.72;5002251;28;20003;-75
2023/03/15 03:29:39;;;;;;;;;;;;;;;4.13;65.06;97051.50;5001169;28;20004;-75
2023/03/15 03:32:05;;;;;;;;;;;;;;;4.13;64.56;97054.09;5035995;28;20007;-74
2023/03/15 03:34:30;;;;;;;;;;;;;;;4.12;64.74;97052.50;5004023;28;20172;-74
2023/03/15 03:36:55;;;;;;;;;;;;;;;4.25;64.47;97055.03;5008456;28;19913;-75
2023/03/15 03:39:21;;;;;;;;;;;;;;;4.17;64.98;97059.63;5019147;28;19917;-74
2023/03/15 03:41:46;;;;;;;;;;;;;;;4.26;64.38;97066.88;5023091;28;19916;-75
2023/03/15 03:44:11;;;;;;;;;;;;;;;4.30;64.84;97070.66;5028493;28;20436;-74
2023/03/15 03:46:36;;;;;;;;;;;;;;;4.33;65.03;97074.59;5019169;28;20364;-75
2023/03/15 03:49:02;;;;;;;;;;;;;;;4.29;65.60;97063.91;5023704;28;19916;-75
2023/03/15 03:51:27;;;;;;;;;;;;;;;4.27;64.00;97068.47;5022694;28;20012;-75
2023/03/15 03:53:52;;;;;;;;;;;;;;;4.38;64.77;97073.97;4999473;28;19920;-74
2023/03/15 03:56:18;;;;;;;;;;;;;;;4.35;64.02;97074.38;5021479;28;19936;-74
2023/03/15 03:58:43;;;;;;;;;;;;;;;4.42;64.60;97072.56;5004565;28;20560;-74
2023/03/15 04:01:08;;;;;;;;;;;;;;;4.38;65.37;97081.72;4987762;28;19917;-74
2023/03/15 04:03:33;;;;;;;;;;;;;;;4.27;64.65;97083.16;5019008;28;20435;-73
2023/03/15 04:05:59;;;;;;;;;;;;;;;4.04;65.36;97078.50;5027968;28;19913;-73
2023/03/15 04:08:25;;;;;;;;;;;;;;;4.29;65.76;97076.78;5009894;28;19917;-74
2023/03/15 04:10:53;;;;;;;;;;;;;;;4.35;64.55;97087.28;5018562;28;19925;-74
2023/03/15 04:13:19;;;;;;;;;;;;;;;4.43;63.97;97084.47;5002848;28;19917;-75
2023/03/15 04:15:45;;;;;;;;;;;;;;;4.54;65.12;97078.66;4984353;28;19921;-74
2023/03/15 04:18:10;;;;;;;;;;;;;;;4.30;64.56;97086.13;5013637;28;20133;-75
2023/03/15 04:20:35;;;;;;;;;;;;;;;4.39;64.10;97088.47;5001532;28;19917;-74
2023/03/15 04:23:01;;;;;;;;;;;;;;;4.46;65.26;97091.78;5002416;28;19913;-74
2023/03/15 04:25:26;;;;;;;;;;;;;;;4.37;64.18;97086.09;5021102;28;19917;-73
2023/03/15 04:27:58;;;;;;;;;;;;;;;4.38;64.90;97089.44;4986945;28;19967;-74
2023/03/15 04:30:26;;;;;;;;;;;;;;;4.47;64.80;97099.31;5022487;28;19917;-74
2023/03/15 04:32:58;;;;;;;;;;;;;;;4.54;64.45;97094.13;5024297;28;20347;-75
2023/03/15 04:35:27;;;;;;;;;;;;;;;4.54;65.13;97078.66;4998755;28;19917;-74
2023/03/15 04:37:52;;;;;;;;;;;;;;;4.55;64.19;97080.22;5003229;28;19967;-74
2023/03/15 04:40:17;;;;;;;;;;;;;;;4.61;63.35;97076.00;5004699;28;19964;-74
2023/03/15 04:42:43;;;;;;;;;;;;;;;4.50;64.30;97074.91;4999203;28;19928;-75
2023/03/15 04:45:08;;;;;;;;;;;;;;;4.35;64.41;97087.28;5023563;28;20227;-73
2023/03/15 04:47:33;;;;;;;;;;;;;;;4.46;64.87;97091.78;5006247;28;20015;-75
2023/03/15 04:49:58;;;;;;;;;;;;;;;4.48;65.19;97098.31;5006930;28;19913;-74
2023/03/15 04:52:24;;;;;;;;;;;;;;;4.27;64.86;97096.06;5020627;28;19917;-74
2023/03/15 04:54:49;;;;;;;;;;;;;;;4.56;65.08;97099.88;5029069;28;19940;-75
2023/03/15 04:57:14;;;;;;;;;;;;;;;4.52;64.60;97106.41;5016793;28;19936;-74
2023/03/15 04:59:39;;;;;;;;;;;;;;;4.55;64.94;97102.66;5027522;28;19971;-74
2023/03/15 05:02:05;;;;;;;;;;;;;;;4.55;64.67;97098.28;5032758;28;19923;-74
2023/03/15 05:04:30;;;;;;;;;;;;;;;4.69;64.86;97099.78;4994493;28;20399;-74
2023/03/15 05:06:55;;;;;;;;;;;;;;;4.48;64.55;97111.19;5028249;28;19917;-75
2023/03/15 05:09:21;;;;;;;;;;;;;;;4.61;64.23;97114.69;5004249;28;19921;-73
2023/03/15 05:11:46;;;;;;;;;;;;;;;4.60;63.90;97116.50;5023967;28;19917;-74
2023/03/15 05:14:11;;;;;;;;;;;;;;;4.50;64.34;97113.56;5029918;28;19913;-74
2023/03/15 05:16:37;;;;;;;;;;;;;;;4.67;64.38;97113.88;5017809;28;19956;-74
2023/03/15 05:19:02;;;;;;;;;;;;;;;4.65;63.55;97124.41;5016488;28;19917;-75
2023/03/15 05:21:27;;;;;;;;;;;;;;;4.67;63.60;97122.41;5002091;28;19917;-74
2023/03/15 05:23:53;;;;;;;;;;;;;;;4.49;64.24;97117.16;5001768;28;20437;-75
2023/03/15 05:26:18;;;;;;;;;;;;;;;4.55;65.04;97118.13;5019164;28;19943;-74
2023/03/15 05:28:44;;;;;;;;;;;;;;;4.58;63.43;97108.16;5016739;28;19924;-75
2023/03/15 05:31:09;;;;;;;;;;;;;;;4.36;64.96;97110.28;5023045;28;19913;-74
2023/03/15 05:33:34;;;;;;;;;;;;;;;4.61;64.58;97109.53;5016103;28;20330;-75
2023/03/15 05:36:00;;;;;;;;;;;;;;;4.59;64.08;97112.34;5000342;28;19940;-74
2023/03/15 05:38:25;;;;;;;;;;;;;;;4.51;63.97;97112.59;5020126;28;20217;-75
2023/03/15 05:40:51;;;;;;;;;;;;;;;4.46;64.52;97110.63;5003928;28;19967;-75
2023/03/15 05:43:16;;;;;;;;;;;;;;;4.29;65.40;97115.44;5019107;28;19921;-75
2023/03/15 05:45:43;;;;;;;;;;;;;;;4.54;64.20;97122.50;5019389;28;19983;-75
2023/03/15 05:48:08;;;;;;;;;;;;;;;4.57;63.26;97127.22;5002142;28;20130;-73
2023/03/15 05:50:34;;;;;;;;;;;;;;;4.29;64.26;97130.91;4987529;28;20395;-73
2023/03/15 05:52:59;;;;;;;;;;;;;;;4.35;64.72;97133.66;5019898;28;19967;-74
2023/03/15 05:55:24;;;;;;;;;;;;;;;4.38;65.37;97143.56;5021744;28;20307;-74
2023/03/15 05:57:49;;;;;;;;;;;;;;;4.55;64.48;97139.53;5021152;28;19917;-73
2023/03/15 06:00:15;;;;;;;;;;;;;;;4.55;64.27;97138.75;4987304;28;19931;-73
2023/03/15 06:02:41;;;;;;;;;;;;;;;4.43;64.80;97151.47;5002033;28;19933;-73
2023/03/15 06:05:06;;;;;;;;;;;;;;;4.48;63.85;97151.66;5018097;28;20011;-74
2023/03/15 06:07:37;;;;;;;;;;;;;;;4.61;63.95;97149.03;5002094;28;19928;-74
2023/03/15 06:10:03;;;;;;;;;;;;;;;4.63;64.39;97147.03;5021681;28;20368;-74
2023/03/15 06:12:28;;;;;;;;;;;;;;;4.42;64.37;97140.41;5014224;28;19921;-74
2023/03/15 06:14:53;;;;;;;;;;;;;;;4.49;63.60;97159.19;5018420;28;19921;-73
2023/03/15 06:17:18;;;;;;;;;;;;;;;4.46;64.33;97157.03;5005873;28;19980;-74
2023/03/15 06:19:44;;;;;;;;;;;;;;;4.57;63.94;97153.00;5018446;28;19917;-75
2023/03/15 06:22:09;;;;;;;;;;;;;;;4.62;63.46;97158.31;5020215;28;19917;-74
2023/03/15 06:24:34;;;;;;;;;;;;;;;4.71;63.32;97174.34;5020698;28;20004;-73
2023/03/15 06:27:00;;;;;;;;;;;;;;;4.73;64.10;97167.22;5018308;28;20407;-73
2023/03/15 06:29:25;;;;;;;;;;;;;;;4.65;63.54;97167.44;5018861;28;20548;-74
2023/03/15 06:31:51;;;;;;;;;;;;;;;4.40;63.71;97175.09;5016794;28;19966;-74
2023/03/15 06:34:16;;;;;;;;;;;;;;;4.48;63.33;97172.28;5012317;28;20311;-74
2023/03/15 06:36:42;;;;;;;;;;;;;;;4.61;63.62;97174.00;4985643;28;20365;-74
2023/03/15 06:39:08;;;;;;;;;;;;;;;4.74;63.11;97179.09;5018447;28;19924;-74
2023/03/15 06:41:34;;;;;;;;;;;;;;;4.72;64.03;97177.75;5017222;28;20383;-73
2023/03/15 06:43:59;;;;;;;;;;;;;;;4.74;64.00;97186.06;5018302;28;20024;-74
2023/03/15 06:46:24;;;;;;;;;;;;;;;4.87;63.23;97189.34;5012433;28;19913;-74
2023/03/15 06:48:50;;;;;;;;;;;;;;;4.85;64.03;97190.56;5002381;28;20537;-74
2023/03/15 06:51:15;;;;;;;;;;;;;;;5.02;63.53;97194.25;5027522;28;20368;-74
2023/03/15 06:53:40;;;;;;;;;;;;;;;5.12;62.66;97192.97;5036485;28;19919;-75
2023/03/15 06:56:05;;;;;;;;;;;;;;;4.83;63.33;97200.28;5029549;28;19913;-73
2023/03/15 06:58:31;;;;;;;;;;;;;;;4.96;62.13;97199.44;5021212;28;19995;-74
2023/03/15 07:00:56;;;;;;;;;;;;;;;5.01;63.30;97195.22;5030023;28;20384;-74
2023/03/15 07:03:22;;;;;;;;;;;;;;;4.97;63.88;97199.22;5007758;28;19913;-74
2023/03/15 07:05:51;;;;;;;;;;;;;;;5.07;63.25;97193.59;4994563;28;20407;-75
2023/03/15 07:08:16;;;;;;;;;;;;;;;5.01;63.70;97197.81;5017421;28;19927;-75
2023/03/15 07:10:41;;;;;;;;;;;;;;;4.96;63.41;97192.47;5023015;28;20003;-74
2023/03/15 07:13:08;;;;;;;;;;;;;;;5.02;63.60;97196.00;5035895;28;19924;-74
2023/03/15 07:15:35;;;;;;;;;;;;;;;5.00;63.64;97203.97;5009545;28;19919;-74
2023/03/15 07:18:00;;;;;;;;;;;;;;;5.11;63.17;97194.00;4996247;28;19917;-73
2023/03/15 07:20:25;;;;;;;;;;;;;;;5.03;63.85;97193.22;5002873;28;19920;-74
2023/03/15 07:22:50;;;;;;;;;;;;;;;5.04;64.32;97184.50;5017639;28;19916;-75
2023/03/15 07:25:22;;;;;;;;;;;;;;;5.27;63.37;97195.28;5016801;28;20049;-73
2023/03/15 07:27:47;;;;;;;;;;;;;;;5.36;63.49;97202.53;4986051;28;19917;-74
2023/03/15 07:30:13;;;;;;;;;;;;;;;5.47;63.68;97208.00;5004844;28;19920;-74
2023/03/15 07:32:38;;;;;;;;;;;;;;;5.48;63.25;97215.56;5004757;28;20421;-74
2023/03/15 07:35:03;;;;;;;;;;;;;;;5.55;63.18;97220.66;4995535;28;19917;-74
2023/03/15 07:37:29;;;;;;;;;;;;;;;5.42;63.25;97216.41;5001906;28;19912;-76
2023/03/15 07:39:54;;;;;;;;;;;;;;;5.36;63.28;97210.28;4982192;28;19920;-74
2023/03/15 07:42:20;;;;;;;;;;;;;;;5.43;63.71;97217.97;4999270;28;19921;-73
2023/03/15 07:44:45;;;;;;;;;;;;;;;5.43;63.16;97228.31;5003629;28;19913;-73
2023/03/15 07:47:10;;;;;;;;;;;;;;;5.47;63.90;97223.50;5016135;28;19997;-73
2023/03/15 07:49:35;;;;;;;;;;;;;;;5.43;63.06;97228.31;4996819;28;19913;-74
2023/03/15 07:52:01;;;;;;;;;;;;;;;5.43;63.91;97218.78;5012009;28;19913;-75
2023/03/15 07:54:28;;;;;;;;;;;;;;;5.11;63.99;97224.97;5025162;28;19963;-74
2023/03/15 07:56:53;;;;;;;;;;;;;;;5.16;64.09;97219.97;5042050;28;19916;-74
2023/03/15 07:59:18;;;;;;;;;;;;;;;5.08;64.99;97226.16;5014978;28;19920;-75
2023/03/15 08:01:44;;;;;;;;;;;;;;;5.15;64.51;97215.78;5012016;28;20353;-75
2023/03/15 08:04:09;;;;;;;;;;;;;;;5.22;64.70;97213.97;5038282;28;19917;-74
2023/03/15 08:06:34;;;;;;;;;;;;;;;5.14;64.78;97214.19;5033276;28;20283;-74
2023/03/15 08:09:03;;;;;;;;;;;;;;;5.42;64.97;97219.00;5013136;28;19923;-74
2023/03/15 08:11:28;;;;;;;;;;;;;;;5.48;64.56;97215.56;5006976;28;19917;-74
2023/03/15 08:13:53;;;;;;;;;;;;;;;5.55;64.86;97220.66;5020408;28;19919;-74
2023/03/15 08:16:18;;;;;;;;;;;;;;;5.56;64.41;97212.72;5011735;28;19917;-74
2023/03/15 08:18:44;;;;;;;;;;;;;;;5.56;63.76;97211.94;5012239;28;19924;-74
2023/03/15 08:21:09;;;;;;;;;;;;;;;5.39;64.67;97212.44;5012098;28;20420;-75
2023/03/15 08:23:34;;;;;;;;;;;;;;;5.35;64.61;97210.50;5001960;28;20372;-74
2023/03/15 08:26:00;;;;;;;;;;;;;;;5.56;64.02;97224.84;5004729;28;20265;-74
2023/03/15 08:28:25;;;;;;;;;;;;;;;5.65;63.14;97226.16;5000047;28;19923;-73
2023/03/15 08:30:50;;;;;;;;;;;;;;;5.72;63.90;97232.06;4999035;28;19963;-75
2023/03/15 08:33:16;;;;;;;;;;;;;;;5.61;63.62;97235.34;5029409;28;20308;-72
2023/03/15 08:35:41;;;;;;;;;;;;;;;5.67;63.76;97241.44;5000820;28;19921;-74
2023/03/15 08:38:08;;;;;;;;;;;;;;;5.51;64.23;97245.34;5041514;28;19924;-74
2023/03/15 08:40:33;;;;;;;;;;;;;;;5.59;64.03;97243.28;5019402;28;19928;-74
2023/03/15 08:42:58;;;;;;;;;;;;;;;5.39;65.09;97242.66;5013751;28;19917;-75
2023/03/15 08:45:24;;;;;;;;;;;;;;;5.62;64.69;97247.22;5038232;28;19955;-75
2023/03/15 08:47:58;;;;;;;;;;;;;;;5.49;64.48;97255.09;4994082;28;20388;-74
2023/03/15 08:50:24;;;;;;;;;;;;;;;5.47;63.52;97257.06;5046332;28;19913;-74
2023/03/15 08:52:49;;;;;;;;;;;;;;;5.43;64.29;97264.44;5011178;28;19913;-73
2023/03/15 08:55:15;;;;;;;;;;;;;;;5.53;63.63;97279.50;5031633;28;19958;-74
2023/03/15 08:57:40;;;;;;;;;;;;;;;5.50;63.72;97282.50;5035467;28;19912;-74
2023/03/15 09:00:08;;;;;;;;;;;;;;;5.65;64.47;97277.81;5032772;28;19999;-74
2023/03/15 09:02:34;;;;;;;;;;;;;;;5.67;63.29;97280.19;5019526;28;20001;-75
2023/03/15 09:04:59;;;;;;;;;;;;;;;5.39;64.88;97278.78;5013468;28;19991;-74
2023/03/15 09:07:25;;;;;;;;;;;;;;;5.57;65.54;97275.47;5030099;28;19975;-74
2023/03/15 09:09:53;;;;;;;;;;;;;;;5.65;64.88;97282.19;4996956;28;19917;-75
2023/03/15 09:12:19;;;;;;;;;;;;;;;5.64;65.36;97278.84;4993690;28;19924;-74
2023/03/15 09:14:44;;;;;;;;;;;;;;;5.56;63.72;97289.41;5014013;28;20381;-74
2023/03/15 09:17:09;;;;;;;;;;;;;;;5.53;65.20;97287.25;5003079;28;19921;-74
2023/03/15 09:19:35;;;;;;;;;;;;;;;5.47;65.60;97286.28;5041354;28;20383;-74
2023/03/15 09:22:01;;;;;;;;;;;;;;;5.71;64.82;97292.50;5035691;28;19917;-75
2023/03/15 09:24:26;;;;;;;;;;;;;;;5.82;65.11;97293.59;5009948;28;19913;-74
2023/03/15 09:26:51;;;;;;;;;;;;;;;5.85;64.83;97298.34;4995891;28;20095;-74
2023/03/15 09:29:17;;;;;;;;;;;;;;;5.90;63.68;97306.25;4999880;28;19914;-74
2023/03/15 09:31:42;;;;;;;;;;;;;;;5.92;64.27;97308.63;5020421;28;19913;-74
2023/03/15 09:34:07;;;;;;;;;;;;;;;6.13;64.45;97299.75;5018866;28;20071;-74
2023/03/15 09:36:32;;;;;;;;;;;;;;;6.23;64.46;97305.22;4996930;28;19920;-74
2023/03/15 09:38:58;;;;;;;;;;;;;;;6.12;64.08;97309.28;5027251;28;19958;-74
2023/03/15 09:41:32;;;;;;;;;;;;;;;6.19;65.22;97307.44;5031849;28;20295;-74
2023/03/15 09:44:00;;;;;;;;;;;;;;;6.14;63.74;97315.03;5019770;28;19917;-75
2023/03/15 09:46:30;;;;;;;;;;;;;;;6.15;64.60;97315.81;5014688;28;19913;-74
2023/03/15 09:49:00;;;;;;;;;;;;;;;6.36;64.56;97327.59;5026392;28;20281;-74
2023/03/15 09:51:46;;;;;;;;;;;;;;;6.28;63.61;97327.84;5031139;28;19912;-74
2023/03/15 09:54:13;;;;;;;;;;;;;;;6.27;64.58;97326.25;5036098;28;19913;-73
2023/03/15 09:56:40;;;;;;;;;;;;;;;6.36;64.60;97328.38;4999640;28;19914;-75
2023/03/15 09:59:05;;;;;;;;;;;;;;;6.25;64.76;97328.28;5041370;28;20078;-75
2023/03/15 10:01:35;;;;;;;;;;;;;;;6.34;63.99;97332.16;5004959;28;20404;-73
2023/03/15 10:04:09;;;;;;;;;;;;;;;6.28;63.87;97322.69;5021338;28;19917;-75
2023/03/15 10:06:35;;;;;;;;;;;;;;;6.30;64.61;97328.44;5013842;28;19923;-74
2023/03/15 10:09:02;;;;;;;;;;;;;;;6.42;64.84;97323.34;5023288;28;20356;-75
2023/03/15 10:11:46;;;;;;;;;;;;;;;6.51;64.07;97322.88;5032632;28;20270;-74
2023/03/15 10:14:11;;;;;;;;;;;;;;;6.50;64.93;97331.63;5027413;28;20373;-73
2023/03/15 10:16:36;;;;;;;;;;;;;;;6.61;64.73;97335.28;5024766;28;19916;-74
2023/03/15 10:19:04;;;;;;;;;;;;;;;6.62;64.48;97333.50;5026708;28;19968;-74
2023/03/15 10:21:36;;;;;;;;;;;;;;;6.56;64.73;97335.16;5011611;28;20360;-73
2023/03/15 10:24:02;;;;;;;;;;;;;;;6.54;64.35;97337.16;5015349;28;19971;-74
2023/03/15 10:26:28;;;;;;;;;;;;;;;6.68;64.46;97340.41;5032451;28;20014;-73
2023/03/15 10:28:53;;;;;;;;;;;;;;;6.70;64.74;97339.19;5027067;28;20432;-74
2023/03/15 10:31:21;;;;;;;;;;;;;;;6.79;64.66;97341.50;5026385;28;19924;-74
2023/03/15 10:36:37;;;;;;;;;;;;;;;6.75;63.60;97348.88;5020282;28;19916;-73
2023/03/15 10:39:04;;;;;;;;;;;;;;;6.83;63.76;97340.06;5000781;28;20295;-73
2023/03/15 10:41:48;;;;;;;;;;;;;;;6.66;64.00;97337.25;5025845;28;20015;-74
2023/03/15 10:44:21;;;;;;;;;;;;;;;6.77;64.91;97343.50;5022661;28;20012;-72
2023/03/15 10:46:59;;;;;;;;;;;;;;;6.78;65.21;97337.31;5027094;28;19917;-73
2023/03/15 10:49:31;;;;;;;;;;;;;;;6.79;64.09;97341.50;5038704;28;19917;-74
2023/03/15 10:51:56;;;;;;;;;;;;;;;6.72;63.93;97344.94;5027172;28;20387;-73
2023/03/15 10:54:22;;;;;;;;;;;;;;;6.86;64.47;97342.22;5046641;28;19913;-74
2023/03/15 10:57:07;;;;;;;;;;;;;;;6.69;64.35;97339.41;4994272;28;20404;-73
2023/03/15 10:59:33;;;;;;;;;;;;;;;6.91;64.30;97332.78;5037157;28;20335;-73
2023/03/15 11:02:11;;;;;;;;;;;;;;;7.02;64.48;97344.22;5012864;28;20522;-73
2023/03/15 11:04:40;;;;;;;;;;;;;;;7.01;64.55;97342.66;5040462;28;19916;-73
2023/03/15 11:07:06;;;;;;;;;;;;;;;7.01;64.45;97341.84;5002835;28;20377;-73
2023/03/15 11:09:44;;;;;;;;;;;;;;;7.20;65.01;97340.81;5011199;28;20339;-74
2023/03/15 11:12:15;;;;;;;;;;;;;;;7.25;63.92;97348.72;4987516;28;19917;-74
2023/03/15 11:14:41;;;;;;;;;;;;;;;7.42;64.06;97348.91;5024797;28;20097;-73
2023/03/15 11:17:11;;;;;;;;;;;;;;;7.43;64.01;97357.47;5002530;28;19943;-73
2023/03/15 11:19:40;;;;;;;;;;;;;;;7.32;63.82;97359.00;5006889;28;19913;-74
2023/03/15 11:22:07;;;;;;;;;;;;;;;7.42;64.09;97359.28;4999702;28;20447;-74
2023/03/15 11:24:33;;;;;;;;;;;;;;;7.56;64.15;97354.72;4997557;28;20007;-74
2023/03/15 11:27:00;;;;;;;;;;;;;;;7.56;63.89;97354.72;5003399;28;20015;-74
2023/03/15 11:29:25;;;;;;;;;;;;;;;7.65;63.31;97355.19;5025598;28;20502;-74
2023/03/15 11:31:51;;;;;;;;;;;;;;;7.61;63.58;97352.25;5005948;28;19921;-73
2023/03/15 11:34:21;;;;;;;;;;;;;;;7.68;64.09;97360.72;5006822;28;19940;-74
2023/03/15 11:36:46;;;;;;;;;;;;;;;7.67;63.72;97355.75;5028355;28;19912;-73
2023/03/15 11:39:13;;;;;;;;;;;;;;;7.76;63.47;97361.41;5018990;28;20012;-73
2023/03/15 11:41:40;;;;;;;;;;;;;;;7.74;63.34;97359.03;4998559;28;19920;-75
2023/03/15 11:44:24;;;;;;;;;;;;;;;7.76;63.92;97364.00;5042245;28;19913;-74
2023/03/15 11:47:00;;;;;;;;;;;;;;;7.91;64.18;97371.38;5032477;28;19979;-73
2023/03/15 11:49:30;;;;;;;;;;;;;;;8.00;63.58;97368.25;5029886;28;19959;-74
2023/03/15 11:51:55;;;;;;;;;;;;;;;8.22;64.44;97368.47;5005082;28;20329;-74
2023/03/15 11:54:20;;;;;;;;;;;;;;;8.82;63.41;97364.13;5032331;28;20003;-74
2023/03/15 11:56:56;;;;;;;;;;;;;;;9.53;61.67;97367.31;5020428;28;19996;-74
2023/03/15 11:59:26;;;;;;;;;;;;;;;9.88;59.12;97376.75;5040719;28;20317;-73
2023/03/15 12:02:04;;;;;;;;;;;;;;;10.04;55.98;97371.81;5036031;28;19917;-73
2023/03/15 12:04:32;;;;;;;;;;;;;;;9.72;56.46;97372.34;5039477;28;19912;-75
2023/03/15 12:07:02;;;;;;;;;;;;;;;9.40;58.08;97372.78;5033084;28;20008;-74
2023/03/15 12:09:30;;;;;;;;;;;;;;;9.35;57.20;97370.88;5010290;28;19913;-75
2023/03/15 12:11:56;;;;;;;;;;;;;;;9.46;55.86;97365.88;5040400;28;19923;-74
2023/03/15 12:14:29;;;;;;;;;;;;;;;9.53;56.34;97364.72;5031306;28;20291;-74
2023/03/15 12:17:13;;;;;;;;;;;;;;;9.41;55.55;97357.97;5029532;28;19919;-74
2023/03/15 12:19:38;;;;;;;;;;;;;;;9.54;56.92;97381.09;5045549;28;19913;-73
2023/03/15 12:22:04;;;;;;;;;;;;;;;9.47;55.22;97373.44;5027601;28;19919;-73
2023/03/15 12:24:29;;;;;;;;;;;;;;;9.42;55.36;97380.38;5030816;28;19919;-73
2023/03/15 12:26:59;;;;;;;;;;;;;;;9.41;55.18;97379.59;5024233;28;19971;-73
2023/03/15 12:29:28;;;;;;;;;;;;;;;9.42;54.59;97375.94;5025679;28;19920;-72
2023/03/15 12:31:53;;;;;;;;;;;;;;;9.40;55.14;97377.22;5043353;28;19919;-74
2023/03/15 12:34:26;;;;;;;;;;;;;;;9.51;55.24;97382.38;5026980;28;20308;-73
2023/03/15 12:36:52;;;;;;;;;;;;;;;9.56;55.04;97377.28;5033545;28;19923;-73
2023/03/15 12:39:17;;;;;;;;;;;;;;;9.66;54.23;97386.25;5006585;28;20012;-74
2023/03/15 12:41:50;;;;;;;;;;;;;;;9.79;53.84;97385.97;5028889;28;19967;-74
2023/03/15 12:44:30;;;;;;;;;;;;;;;9.68;54.53;97379.00;5007868;28;20047;-74
2023/03/15 12:46:56;;;;;;;;;;;;;;;9.81;53.08;97378.72;5046181;28;19967;-74
2023/03/15 12:49:22;;;;;;;;;;;;;;;9.89;53.96;97380.19;5025690;28;20164;-73
2023/03/15 12:51:54;;;;;;;;;;;;;;;9.65;54.22;97379.50;5042333;28;19999;-73
2023/03/15 12:54:20;;;;;;;;;;;;;;;9.92;53.33;97379.69;5032141;28;19944;-74
2023/03/15 12:56:53;;;;;;;;;;;;;;;9.91;52.33;97373.69;5013920;28;20312;-74
2023/03/15 12:59:18;;;;;;;;;;;;;;;9.79;53.31;97377.41;5029984;28;20446;-74